createdAt,value
2023-11-22T00:00:24.729Z,7.90
2023-11-22T00:02:52.231Z,8.60
2023-11-22T00:05:19.624Z,8.80
2023-11-22T00:07:47.074Z,10.82
2023-11-22T00:10:15.001Z,8.47
2023-11-22T00:12:42.320Z,7.90
2023-11-22T00:15:11.673Z,12.07
2023-11-22T00:17:39.668Z,10.32
2023-11-22T00:20:09.005Z,10.55
2023-11-22T00:22:36.603Z,12.00
2023-11-22T00:25:04.811Z,8.48
2023-11-22T00:27:34.967Z,9.93
2023-11-22T00:30:02.469Z,9.48
2023-11-22T00:32:30.001Z,8.70
2023-11-22T00:34:57.420Z,10.67
2023-11-22T00:37:24.834Z,10.10
2023-11-22T00:39:52.454Z,10.85
2023-11-22T00:42:23.458Z,8.80
2023-11-22T00:44:52.038Z,11.10
2023-11-22T00:47:19.477Z,9.67
2023-11-22T00:49:46.787Z,9.50
2023-11-22T00:52:14.567Z,9.38
2023-11-22T00:54:41.970Z,9.57
2023-11-22T00:57:09.391Z,10.15
2023-11-22T00:59:36.788Z,11.90
2023-11-22T01:02:06.517Z,11.23
2023-11-22T01:04:37.027Z,14.80
2023-11-22T01:07:07.792Z,9.15
2023-11-22T01:09:35.122Z,8.93
2023-11-22T01:12:02.744Z,11.73
2023-11-22T01:14:30.695Z,11.10
2023-11-22T01:16:58.222Z,10.27
2023-11-22T01:19:27.428Z,10.27
2023-11-22T01:26:07.820Z,11.40
2023-11-22T01:28:35.561Z,10.38
2023-11-22T01:31:03.635Z,10.45
2023-11-22T01:33:33.451Z,10.35
2023-11-22T01:36:00.870Z,9.73
2023-11-22T01:38:28.352Z,12.80
2023-11-22T01:40:55.687Z,14.18
2023-11-22T01:43:25.420Z,11.90
2023-11-22T01:45:52.866Z,11.77
2023-11-22T01:48:20.352Z,12.10
2023-11-22T01:50:47.670Z,11.87
2023-11-22T01:53:15.207Z,11.98
2023-11-22T01:55:42.538Z,13.05
2023-11-22T01:58:09.920Z,13.32
2023-11-22T02:00:43.306Z,12.73
2023-11-22T02:03:11.015Z,10.97
2023-11-22T02:05:43.171Z,14.13
2023-11-22T02:08:11.670Z,12.75
2023-11-22T02:10:39.187Z,12.10
2023-11-22T02:13:09.738Z,12.18
2023-11-22T02:15:37.134Z,12.33
2023-11-22T02:18:11.328Z,12.27
2023-11-22T02:20:42.516Z,12.95
2023-11-22T02:23:10.944Z,12.90
2023-11-22T02:25:38.821Z,13.23
2023-11-22T02:28:06.256Z,12.90
2023-11-22T02:30:33.681Z,13.27
2023-11-22T02:33:01.030Z,13.23
2023-11-22T02:35:28.579Z,14.27
2023-11-22T02:37:55.957Z,18.38
2023-11-22T02:40:23.520Z,15.07
2023-11-22T02:42:51.334Z,14.40
2023-11-22T02:45:19.370Z,14.05
2023-11-22T02:47:47.777Z,13.15
2023-11-22T02:50:15.352Z,16.95
2023-11-22T02:52:43.099Z,15.43
2023-11-22T02:55:10.861Z,15.55
2023-11-22T02:57:41.673Z,15.43
2023-11-22T03:00:10.336Z,11.25
2023-11-22T03:02:38.604Z,14.73
2023-11-22T03:05:06.992Z,15.50
2023-11-22T03:07:34.243Z,15.85
2023-11-22T03:10:02.236Z,18.83
2023-11-22T03:12:29.553Z,18.77
2023-11-22T03:15:01.350Z,18.60
2023-11-22T03:17:32.272Z,17.37
2023-11-22T03:19:59.960Z,15.70
2023-11-22T03:22:31.321Z,19.15
2023-11-22T03:25:01.607Z,17.60
2023-11-22T03:27:28.944Z,20.13
2023-11-22T03:29:56.322Z,18.03
2023-11-22T03:32:23.760Z,19.17
2023-11-22T03:34:52.265Z,18.70
2023-11-22T03:37:19.541Z,20.33
2023-11-22T03:39:49.991Z,22.30
2023-11-22T03:42:17.798Z,21.50
2023-11-22T03:44:46.549Z,23.00
2023-11-22T03:47:17.257Z,21.73
2023-11-22T03:49:47.409Z,20.92
2023-11-22T03:52:15.562Z,19.25
2023-11-22T03:54:42.988Z,19.77
2023-11-22T03:57:10.337Z,19.33
2023-11-22T03:59:37.730Z,20.85
2023-11-22T04:02:05.414Z,22.85
2023-11-22T04:04:32.791Z,20.45
2023-11-22T04:07:00.161Z,21.40
2023-11-22T04:09:27.577Z,20.67
2023-11-22T04:11:55.006Z,20.30
2023-11-22T04:14:22.997Z,19.08
2023-11-22T04:16:51.160Z,18.90
2023-11-22T04:19:18.832Z,19.10
2023-11-22T04:21:46.722Z,18.88
2023-11-22T04:24:14.060Z,19.90
2023-11-22T04:26:41.540Z,17.90
2023-11-22T04:29:08.976Z,17.10
2023-11-22T04:31:36.454Z,16.00
2023-11-22T04:34:04.000Z,15.70
2023-11-22T04:36:31.969Z,16.38
2023-11-22T04:38:59.327Z,16.13
2023-11-22T04:41:27.606Z,14.02
2023-11-22T04:43:54.990Z,14.37
2023-11-22T04:46:22.520Z,17.95
2023-11-22T04:48:52.404Z,16.58
2023-11-22T04:51:19.972Z,18.85
2023-11-22T04:53:47.280Z,17.10
2023-11-22T04:56:14.730Z,15.67
2023-11-22T04:58:42.317Z,13.35
2023-11-22T05:01:10.990Z,14.15
2023-11-22T05:03:38.724Z,15.75
2023-11-22T05:06:06.897Z,13.95
2023-11-22T05:08:35.650Z,12.70
2023-11-22T05:11:04.365Z,18.80
2023-11-22T05:13:31.992Z,14.63
2023-11-22T05:15:59.510Z,12.25
2023-11-22T05:18:27.067Z,13.55
2023-11-22T05:20:54.386Z,13.00
2023-11-22T05:23:21.806Z,12.23
2023-11-22T05:25:49.998Z,13.40
2023-11-22T05:28:17.378Z,12.48
2023-11-22T05:30:44.768Z,9.48
2023-11-22T05:33:12.350Z,9.73
2023-11-22T05:35:39.960Z,9.95
2023-11-22T05:38:07.398Z,10.55
2023-11-22T05:40:34.889Z,11.32
2023-11-22T05:43:02.926Z,13.30
2023-11-22T05:45:30.381Z,9.30
2023-11-22T05:47:58.132Z,10.30
2023-11-22T05:50:25.627Z,10.45
2023-11-22T05:52:53.180Z,11.13
2023-11-22T05:55:20.429Z,11.95
2023-11-22T05:57:47.835Z,10.73
2023-11-22T06:00:15.617Z,10.43
2023-11-22T06:02:43.777Z,9.73
2023-11-22T06:05:11.504Z,8.88
2023-11-22T06:07:39.269Z,13.38
2023-11-22T06:10:07.450Z,11.50
2023-11-22T06:12:34.853Z,10.15
2023-11-22T06:15:02.232Z,11.73
2023-11-22T06:17:31.675Z,10.10
2023-11-22T06:20:00.137Z,12.73
2023-11-22T06:22:28.219Z,11.73
2023-11-22T06:24:55.656Z,11.70
2023-11-22T06:27:23.519Z,12.32
2023-11-22T06:29:51.553Z,10.40
2023-11-22T06:32:22.707Z,13.07
2023-11-22T06:34:50.994Z,10.50
2023-11-22T06:37:18.475Z,12.73
2023-11-22T06:39:46.897Z,13.25
2023-11-22T06:42:16.247Z,10.20
2023-11-22T06:44:45.248Z,13.00
2023-11-22T06:47:13.182Z,10.77
2023-11-22T06:49:41.325Z,8.57
2023-11-22T06:52:10.510Z,11.85
2023-11-22T06:54:38.316Z,9.27
2023-11-22T06:57:07.706Z,9.35
2023-11-22T06:59:35.902Z,10.37
2023-11-22T07:02:06.022Z,11.68
2023-11-22T07:04:35.997Z,9.13
2023-11-22T07:07:05.709Z,10.52
2023-11-22T07:09:34.793Z,9.48
2023-11-22T07:12:02.277Z,10.83
2023-11-22T07:14:30.949Z,10.88
2023-11-22T07:16:59.401Z,10.88
2023-11-22T07:19:28.156Z,9.65
2023-11-22T07:21:56.423Z,10.35
2023-11-22T07:24:27.541Z,9.43
2023-11-22T07:26:56.031Z,11.02
2023-11-22T07:29:27.900Z,10.38
2023-11-22T07:32:17.186Z,9.55
2023-11-22T07:34:57.822Z,11.43
2023-11-22T07:37:28.611Z,9.47
2023-11-22T07:39:56.741Z,10.82
2023-11-22T07:42:24.842Z,9.35
2023-11-22T07:44:57.690Z,8.95
2023-11-22T07:47:26.004Z,8.57
2023-11-22T07:49:54.206Z,10.03
2023-11-22T07:52:22.082Z,8.70
2023-11-22T07:54:49.942Z,10.38
2023-11-22T07:57:17.497Z,8.70
2023-11-22T07:59:46.184Z,7.90
2023-11-22T08:02:20.495Z,9.53
2023-11-22T08:04:50.009Z,7.70
2023-11-22T08:07:19.280Z,9.90
2023-11-22T08:09:47.859Z,7.28
2023-11-22T08:12:20.387Z,9.93
2023-11-22T08:14:50.929Z,11.87
2023-11-22T08:17:24.606Z,12.30
2023-11-22T08:19:54.289Z,10.93
2023-11-22T08:22:22.714Z,11.63
2023-11-22T08:24:50.537Z,9.23
2023-11-22T08:27:19.521Z,9.77
2023-11-22T08:29:48.976Z,10.40
2023-11-22T08:32:16.735Z,11.30
2023-11-22T08:34:47.093Z,10.45
2023-11-22T08:37:17.010Z,10.57
2023-11-22T08:39:45.934Z,10.17
2023-11-22T08:42:16.039Z,12.27
2023-11-22T08:44:45.431Z,12.02
2023-11-22T08:47:14.919Z,12.57
2023-11-22T08:49:43.271Z,12.75
2023-11-22T08:52:10.782Z,9.47
2023-11-22T08:54:38.498Z,11.88
2023-11-22T08:57:07.532Z,9.45
2023-11-22T08:59:39.567Z,13.05
2023-11-22T09:02:18.453Z,10.30
2023-11-22T09:04:48.590Z,8.53
2023-11-22T09:07:24.312Z,8.75
2023-11-22T09:10:02.284Z,8.88
2023-11-22T09:12:38.541Z,8.93
2023-11-22T09:15:13.851Z,8.63
2023-11-22T09:17:48.590Z,9.03
2023-11-22T09:20:19.070Z,8.75
2023-11-22T09:22:51.886Z,9.07
2023-11-22T09:25:23.005Z,10.13
2023-11-22T09:27:53.387Z,9.70
2023-11-22T09:30:39.552Z,7.53
2023-11-22T09:33:10.413Z,9.45
2023-11-22T09:35:42.686Z,8.38
2023-11-22T09:38:13.637Z,10.60
2023-11-22T09:40:45.696Z,8.32
2023-11-22T09:43:16.389Z,9.70
2023-11-22T09:45:45.110Z,11.43
2023-11-22T09:48:21.955Z,7.25
2023-11-22T09:51:08.850Z,10.23
2023-11-22T09:53:58.191Z,10.45
2023-11-22T09:56:26.130Z,11.07
2023-11-22T09:58:58.308Z,8.85
2023-11-22T10:01:26.051Z,9.20
2023-11-22T10:03:53.786Z,9.77
2023-11-22T10:06:22.291Z,8.38
2023-11-22T10:08:50.913Z,12.93
2023-11-22T10:11:19.402Z,10.38
2023-11-22T10:13:53.630Z,10.77
2023-11-22T10:16:22.584Z,9.40
2023-11-22T10:18:50.584Z,11.10
2023-11-22T10:21:29.576Z,10.73
2023-11-22T10:24:04.326Z,8.57
2023-11-22T10:26:32.552Z,8.02
2023-11-22T10:29:00.390Z,9.05
2023-11-22T10:31:29.638Z,9.75
2023-11-22T10:33:59.296Z,8.60
2023-11-22T10:36:27.286Z,8.68
2023-11-22T10:38:55.201Z,9.95
2023-11-22T10:41:25.697Z,8.93
2023-11-22T10:43:54.046Z,6.40
2023-11-22T10:46:23.238Z,7.40
2023-11-22T10:48:51.175Z,8.82
2023-11-22T10:51:20.331Z,7.18
2023-11-22T10:53:50.811Z,7.47
2023-11-22T10:56:21.929Z,10.60
2023-11-22T10:58:51.561Z,7.03
2023-11-22T11:01:20.959Z,7.50
2023-11-22T11:04:05.066Z,6.88
2023-11-22T11:06:39.918Z,7.85
2023-11-22T11:09:17.986Z,7.78
2023-11-22T11:11:48.841Z,8.10
2023-11-22T11:14:18.989Z,6.90
2023-11-22T11:16:49.302Z,7.82
2023-11-22T11:19:19.156Z,6.78
2023-11-22T11:21:47.031Z,6.50
2023-11-22T11:24:15.420Z,7.07
2023-11-22T11:26:43.978Z,8.55
2023-11-22T11:29:11.524Z,7.43
2023-11-22T11:31:43.203Z,7.72
2023-11-22T11:34:11.290Z,8.23
2023-11-22T11:36:39.505Z,7.37
2023-11-22T11:39:16.220Z,8.13
2023-11-22T11:41:46.106Z,7.20
2023-11-22T11:44:14.134Z,6.97
2023-11-22T11:46:42.736Z,6.65
2023-11-22T11:49:17.925Z,9.03
2023-11-22T11:51:46.043Z,8.77
2023-11-22T11:54:17.090Z,8.20
2023-11-22T11:56:46.280Z,10.10
2023-11-22T11:59:18.025Z,10.00
2023-11-22T12:01:50.955Z,10.10
2023-11-22T12:04:30.019Z,8.03
2023-11-22T12:07:10.032Z,9.57
2023-11-22T12:09:53.607Z,8.23
2023-11-22T12:12:22.529Z,9.27
2023-11-22T12:14:51.424Z,8.05
2023-11-22T12:17:19.577Z,9.13
2023-11-22T12:19:47.293Z,8.85
2023-11-22T12:22:15.236Z,9.93
2023-11-22T12:24:45.179Z,9.25
2023-11-22T12:27:21.704Z,8.85
2023-11-22T12:29:49.782Z,9.03
2023-11-22T12:32:19.176Z,9.20
2023-11-22T12:34:46.755Z,7.82
2023-11-22T12:37:14.728Z,9.02
2023-11-22T12:39:43.314Z,8.70
2023-11-22T12:42:11.805Z,8.83
2023-11-22T12:44:51.194Z,7.43
2023-11-22T12:47:37.269Z,7.95
2023-11-22T12:50:07.352Z,8.38
2023-11-22T12:52:36.778Z,9.00
2023-11-22T12:55:09.780Z,8.80
2023-11-22T12:57:40.341Z,9.25
2023-11-22T13:00:09.168Z,8.82
2023-11-22T13:05:06.029Z,10.90
2023-11-22T13:07:34.623Z,10.17
2023-11-22T13:10:02.218Z,10.95
2023-11-22T13:12:30.345Z,15.32
2023-11-22T13:14:58.196Z,10.45
2023-11-22T13:17:25.911Z,11.95
2023-11-22T13:19:55.337Z,10.37
2023-11-22T13:22:22.866Z,13.20
2023-11-22T13:24:50.428Z,10.43
2023-11-22T13:27:18.759Z,9.95
2023-11-22T13:29:46.464Z,9.50
2023-11-22T13:32:14.271Z,9.37
2023-11-22T13:34:42.045Z,40.10
2023-11-22T13:37:10.506Z,14.25
2023-11-22T13:39:38.051Z,11.50
2023-11-22T13:42:05.587Z,12.02
2023-11-22T13:44:33.131Z,11.20
2023-11-22T13:47:00.847Z,11.48
2023-11-22T13:49:29.020Z,12.05
2023-11-22T13:51:56.693Z,12.73
2023-11-22T13:54:24.382Z,13.63
2023-11-22T13:56:51.913Z,12.63
2023-11-22T13:59:19.606Z,12.95
2023-11-22T14:01:47.930Z,13.43
2023-11-22T14:04:16.459Z,12.75
2023-11-22T14:06:44.195Z,14.73
2023-11-22T14:09:14.137Z,13.60
2023-11-22T14:11:41.706Z,11.23
2023-11-22T14:14:12.035Z,15.30
2023-11-22T14:16:45.195Z,15.88
2023-11-22T14:19:14.456Z,12.85
2023-11-22T14:21:41.974Z,14.60
2023-11-22T14:24:09.990Z,13.45
2023-11-22T14:26:38.459Z,14.90
2023-11-22T14:29:07.297Z,13.20
2023-11-22T14:31:35.039Z,14.20
2023-11-22T14:34:05.435Z,14.37
2023-11-22T14:36:33.297Z,16.33
2023-11-22T14:39:00.800Z,16.70
2023-11-22T14:41:28.347Z,17.83
2023-11-22T14:43:55.731Z,16.35
2023-11-22T14:46:23.353Z,18.47
2023-11-22T14:48:51.650Z,20.48
2023-11-22T14:51:19.675Z,16.60
2023-11-22T14:53:47.242Z,17.65
2023-11-22T14:56:15.984Z,19.08
2023-11-22T14:58:43.569Z,14.00
2023-11-22T15:01:11.082Z,16.15
2023-11-22T15:03:38.652Z,17.77
2023-11-22T15:06:06.544Z,22.30
2023-11-22T15:08:34.991Z,19.10
2023-11-22T15:11:02.738Z,16.47
2023-11-22T15:13:30.201Z,17.27
2023-11-22T15:15:58.037Z,19.60
2023-11-22T15:18:25.985Z,18.08
2023-11-22T15:20:53.814Z,15.98
2023-11-22T15:23:21.496Z,15.67
2023-11-22T15:25:48.985Z,19.55
2023-11-22T15:28:24.093Z,20.38
2023-11-22T15:30:57.630Z,20.23
2023-11-22T15:33:25.267Z,16.15
2023-11-22T15:35:53.107Z,17.13
2023-11-22T15:38:20.778Z,21.20
2023-11-22T15:40:48.422Z,18.13
2023-11-22T15:43:15.695Z,17.23
2023-11-22T15:45:44.168Z,19.92
2023-11-22T15:48:14.032Z,21.83
2023-11-22T15:50:41.688Z,17.40
2023-11-22T15:53:14.320Z,16.15
2023-11-22T15:55:42.171Z,16.33
2023-11-22T15:58:10.136Z,19.70
2023-11-22T16:00:37.703Z,19.37
2023-11-22T16:03:07.898Z,18.15
2023-11-22T16:05:35.561Z,18.52
2023-11-22T16:08:02.891Z,19.63
2023-11-22T16:10:30.499Z,19.67
2023-11-22T16:12:57.965Z,17.50
2023-11-22T16:15:25.500Z,18.35
2023-11-22T16:17:52.891Z,18.58
2023-11-22T16:20:23.067Z,17.58
2023-11-22T16:22:51.252Z,22.65
2023-11-22T16:25:23.970Z,16.77
2023-11-22T16:27:52.202Z,19.92
2023-11-22T16:30:19.600Z,16.25
2023-11-22T16:32:47.541Z,18.10
2023-11-22T16:35:17.331Z,17.63
2023-11-22T16:37:45.295Z,16.67
2023-11-22T16:40:13.612Z,18.45
2023-11-22T16:42:41.101Z,18.67
2023-11-22T16:45:09.070Z,20.98
2023-11-22T16:47:38.175Z,20.55
2023-11-22T16:50:07.188Z,17.50
2023-11-22T16:52:34.785Z,19.40
2023-11-22T16:55:02.218Z,15.45
2023-11-22T16:57:29.631Z,17.63
2023-11-22T16:59:57.196Z,18.38
2023-11-22T17:02:24.597Z,16.93
2023-11-22T17:04:56.354Z,19.15
2023-11-22T17:07:23.823Z,17.67
2023-11-22T17:09:51.472Z,19.17
2023-11-22T17:12:19.175Z,18.00
2023-11-22T17:14:46.776Z,17.53
2023-11-22T17:17:14.717Z,17.23
2023-11-22T17:19:42.147Z,21.58
2023-11-22T17:22:09.563Z,18.90
2023-11-22T17:24:37.083Z,19.90
2023-11-22T17:27:04.630Z,21.30
2023-11-22T17:29:32.208Z,19.60
2023-11-22T17:31:59.597Z,20.15
2023-11-22T17:34:27.828Z,18.70
2023-11-22T17:36:55.242Z,21.55
2023-11-22T17:39:22.760Z,16.07
2023-11-22T17:41:50.425Z,20.92
2023-11-22T17:44:18.288Z,20.60
2023-11-22T17:46:45.757Z,19.77
2023-11-22T17:49:13.340Z,20.00
2023-11-22T17:51:42.551Z,20.30
2023-11-22T17:54:10.184Z,20.70
2023-11-22T17:56:37.636Z,22.02
2023-11-22T17:59:05.215Z,19.85
2023-11-22T18:01:32.713Z,18.35
2023-11-22T18:04:00.368Z,18.80
2023-11-22T18:06:27.948Z,23.40
2023-11-22T18:08:58.682Z,22.35
2023-11-22T18:11:27.961Z,20.23
2023-11-22T18:13:57.283Z,20.60
2023-11-22T18:16:25.326Z,22.50
2023-11-22T18:18:52.797Z,22.65
2023-11-22T18:21:20.372Z,20.55
2023-11-22T18:23:47.825Z,22.25
2023-11-22T18:26:15.631Z,23.10
2023-11-22T18:28:43.103Z,17.20
2023-11-22T18:31:14.473Z,22.00
2023-11-22T18:33:42.551Z,26.55
2023-11-22T18:36:11.667Z,20.83
2023-11-22T18:38:39.837Z,24.50
2023-11-22T18:41:07.949Z,10.53
2023-11-22T18:43:36.031Z,27.58
2023-11-22T18:46:04.911Z,23.52
2023-11-22T18:48:33.894Z,28.08
2023-11-22T18:51:01.490Z,26.38
2023-11-22T18:53:29.051Z,25.93
2023-11-22T18:55:56.559Z,28.52
2023-11-22T18:58:23.906Z,25.30
2023-11-22T19:00:51.361Z,29.13
2023-11-22T19:03:18.776Z,21.63
2023-11-22T19:05:46.335Z,27.40
2023-11-22T19:08:14.356Z,30.10
2023-11-22T19:10:42.046Z,26.20
2023-11-22T19:13:10.283Z,17.02
2023-11-22T19:15:44.272Z,28.30
2023-11-22T19:18:11.804Z,27.57
2023-11-22T19:20:40.589Z,24.92
2023-11-22T19:23:07.973Z,28.25
2023-11-22T19:25:37.104Z,25.10
2023-11-22T19:28:09.532Z,28.42
2023-11-22T19:30:37.260Z,28.97
2023-11-22T19:33:04.846Z,22.67
2023-11-22T19:35:32.521Z,29.27
2023-11-22T19:38:00.176Z,29.60
2023-11-22T19:40:29.008Z,30.02
2023-11-22T19:42:56.429Z,32.77
2023-11-22T19:45:23.691Z,27.10
2023-11-22T19:47:51.663Z,23.33
2023-11-22T19:50:21.242Z,30.20
2023-11-22T19:52:48.683Z,25.75
2023-11-22T19:55:16.175Z,31.83
2023-11-22T19:57:43.714Z,21.83
2023-11-22T20:00:11.810Z,27.95
2023-11-22T20:02:42.793Z,35.55
2023-11-22T20:05:10.260Z,28.85
2023-11-22T20:07:37.679Z,19.97
2023-11-22T20:10:05.405Z,20.60
2023-11-22T20:12:32.982Z,25.58
2023-11-22T20:15:00.455Z,24.58
2023-11-22T20:17:28.049Z,25.88
2023-11-22T20:19:55.344Z,19.87
2023-11-22T20:22:22.704Z,21.65
2023-11-22T20:24:50.002Z,25.25
2023-11-22T20:27:17.320Z,22.05
2023-11-22T20:29:44.660Z,22.00
2023-11-22T20:32:13.219Z,25.87
2023-11-22T20:34:40.613Z,26.33
2023-11-22T20:37:07.941Z,24.90
2023-11-22T20:39:35.304Z,20.95
2023-11-22T20:42:02.781Z,24.95
2023-11-22T20:44:30.402Z,28.57
2023-11-22T20:46:57.897Z,30.50
2023-11-22T20:49:27.076Z,29.98
2023-11-22T20:51:54.407Z,28.10
2023-11-22T20:54:22.593Z,29.65
2023-11-22T20:56:52.783Z,23.60
2023-11-22T20:59:20.241Z,31.13
2023-11-22T21:01:47.603Z,31.80
2023-11-22T21:04:15.165Z,27.50
2023-11-22T21:06:42.697Z,21.52
2023-11-22T21:09:11.898Z,27.33
2023-11-22T21:11:40.925Z,30.30
2023-11-22T21:14:11.773Z,31.92
2023-11-22T21:16:42.657Z,28.40
2023-11-22T21:19:11.126Z,28.08
2023-11-22T21:21:39.176Z,32.47
2023-11-22T21:24:06.929Z,31.30
2023-11-22T21:26:34.648Z,25.23
2023-11-22T21:29:02.046Z,29.45
2023-11-22T21:31:29.723Z,30.33
2023-11-22T21:33:57.313Z,27.13
2023-11-22T21:36:24.639Z,27.80
2023-11-22T21:38:52.156Z,28.48
2023-11-22T21:41:19.612Z,24.52
2023-11-22T21:43:47.008Z,24.50
2023-11-22T21:46:17.842Z,29.83
2023-11-22T21:48:46.148Z,29.42
2023-11-22T21:51:14.064Z,28.48
2023-11-22T21:53:41.732Z,24.85
2023-11-22T21:56:09.651Z,29.27
2023-11-22T21:58:37.351Z,31.53
2023-11-22T22:01:04.812Z,28.90
2023-11-22T22:03:32.359Z,28.75
2023-11-22T22:06:00.227Z,29.02
2023-11-22T22:08:27.670Z,27.13
2023-11-22T22:10:54.933Z,28.03
2023-11-22T22:13:22.441Z,25.85
2023-11-22T22:15:51.711Z,27.50
2023-11-22T22:18:20.795Z,25.58
2023-11-22T22:20:53.677Z,25.95
2023-11-22T22:23:23.418Z,25.87
2023-11-22T22:25:50.659Z,25.27
2023-11-22T22:28:17.998Z,28.73
2023-11-22T22:30:45.379Z,28.15
2023-11-22T22:33:14.591Z,27.80
2023-11-22T22:35:42.066Z,34.47
2023-11-22T22:38:09.347Z,28.05
2023-11-22T22:40:37.565Z,26.30
2023-11-22T22:43:06.033Z,27.33
2023-11-22T22:45:33.582Z,29.48
2023-11-22T22:48:01.355Z,26.47
2023-11-22T22:50:29.123Z,30.48
2023-11-22T22:52:56.906Z,33.03
2023-11-22T22:55:24.630Z,30.92
2023-11-22T22:57:52.093Z,28.42
2023-11-22T23:00:37.144Z,31.30
2023-11-22T23:03:06.291Z,29.38
2023-11-22T23:05:34.054Z,26.17
2023-11-22T23:08:01.512Z,25.88
2023-11-22T23:10:28.981Z,28.80
2023-11-22T23:12:56.328Z,28.73
2023-11-22T23:15:27.104Z,28.23
2023-11-22T23:17:54.968Z,24.92
2023-11-22T23:20:22.348Z,28.33
2023-11-22T23:22:49.733Z,29.30
2023-11-22T23:25:17.126Z,29.23
2023-11-22T23:27:45.564Z,27.75
2023-11-22T23:30:13.577Z,26.65
2023-11-22T23:32:42.001Z,25.60
2023-11-22T23:35:12.918Z,26.98
2023-11-22T23:37:42.971Z,29.70
2023-11-22T23:40:11.178Z,27.15
2023-11-22T23:42:39.054Z,28.17
2023-11-22T23:45:09.501Z,30.83
2023-11-22T23:47:37.124Z,28.02
2023-11-22T23:50:05.402Z,25.13
2023-11-22T23:52:32.760Z,29.52
2023-11-22T23:55:00.228Z,29.50
2023-11-22T23:57:27.562Z,26.77
2023-11-22T23:59:54.897Z,28.63
